Time;durP1;ratioP1;P1;durP2;ratioP2;P2;SDS_P1;SDS_P2;PMS_P1;PMS_P2;Temp;Humidity;BMP_temperature;BMP_pressure;BME280_temperature;BME280_humidity;BME280_pressure;Samples;Min_cycle;Max_cycle;Signal;HPM_P1;HPM_P2
2023/03/06 00:00:57;;;;;;;12.52;6.97;;;;;;;0.88;100.00;100901.72;5072176;28;20044;-75
2023/03/06 00:03:26;;;;;;;13.48;7.35;;;;;;;0.98;100.00;100915.59;5071823;28;20384;-75
2023/03/06 00:05:54;;;;;;;12.30;7.30;;;;;;;0.96;100.00;100908.69;5071507;28;20032;-75
2023/03/06 00:08:19;;;;;;;11.55;7.03;;;;;;;0.96;100.00;100911.25;5072496;28;20029;-75
2023/03/06 00:10:45;;;;;;;12.43;7.53;;;;;;;0.95;100.00;100902.69;5070430;28;20034;-75
2023/03/06 00:13:12;;;;;;;11.70;7.13;;;;;;;0.94;100.00;100906.09;5072404;28;20060;-75
2023/03/06 00:15:37;;;;;;;11.50;7.15;;;;;;;0.90;100.00;100905.16;5072268;28;20017;-75
2023/03/06 00:18:04;;;;;;;12.55;7.15;;;;;;;0.89;100.00;100906.03;5070411;28;20078;-75
2023/03/06 00:20:31;;;;;;;12.00;7.45;;;;;;;0.83;100.00;100881.94;5072143;28;20510;-75
2023/03/06 00:22:57;;;;;;;14.23;7.72;;;;;;;0.89;100.00;100887.19;5072536;28;20025;-75
2023/03/06 00:25:22;;;;;;;13.27;7.53;;;;;;;0.87;100.00;100889.72;5071682;28;20032;-75
2023/03/06 00:27:48;;;;;;;15.48;7.97;;;;;;;0.84;100.00;100881.09;5072072;28;20028;-75
2023/03/06 00:30:17;;;;;;;12.63;7.55;;;;;;;0.80;100.00;100887.03;5071995;28;20027;-75
2023/03/06 00:32:43;;;;;;;17.85;7.53;;;;;;;0.76;100.00;100885.25;5072163;28;20093;-75
2023/03/06 00:35:10;;;;;;;13.18;8.05;;;;;;;0.75;100.00;100875.81;5072021;28;20491;-76
2023/03/06 00:37:35;;;;;;;17.42;8.30;;;;;;;0.74;100.00;100879.22;5071190;28;20029;-75
2023/03/06 00:40:00;;;;;;;16.85;8.40;;;;;;;0.70;100.00;100874.03;5071390;28;20070;-75
2023/03/06 00:42:26;;;;;;;14.68;8.63;;;;;;;0.66;100.00;100868.84;5070190;28;20055;-75
2023/03/06 00:44:51;;;;;;;14.57;8.80;;;;;;;0.67;100.00;100865.44;5067102;28;20379;-75
2023/03/06 00:47:16;;;;;;;12.75;8.30;;;;;;;0.62;100.00;100862.78;5070796;28;20032;-75
2023/03/06 00:49:45;;;;;;;14.45;8.98;;;;;;;0.58;100.00;100866.13;5071768;28;20028;-75
2023/03/06 00:52:11;;;;;;;15.30;8.60;;;;;;;0.53;100.00;100862.63;5075285;28;20020;-75
2023/03/06 00:54:37;;;;;;;17.17;9.50;;;;;;;0.45;100.00;100861.59;5071885;28;20048;-75
2023/03/06 00:57:03;;;;;;;17.52;9.90;;;;;;;0.35;100.00;100858.00;5071953;28;20157;-75
2023/03/06 00:59:28;;;;;;;15.40;9.73;;;;;;;0.32;100.00;100859.66;5070810;28;20055;-75
2023/03/06 01:01:54;;;;;;;18.17;10.35;;;;;;;0.25;100.00;100855.25;5073861;28;20028;-75
2023/03/06 01:04:19;;;;;;;16.90;10.23;;;;;;;0.23;100.00;100858.66;5075843;28;20040;-75
2023/03/06 01:06:45;;;;;;;16.60;9.98;;;;;;;0.19;100.00;100856.84;5074890;28;20024;-75
2023/03/06 01:09:10;;;;;;;17.70;10.23;;;;;;;0.19;100.00;100849.16;5075134;28;20044;-75
2023/03/06 01:11:36;;;;;;;19.38;10.27;;;;;;;0.12;100.00;100838.78;5075492;28;20023;-75
2023/03/06 01:14:01;;;;;;;16.70;10.57;;;;;;;0.12;100.00;100847.31;5075159;28;20025;-75
2023/03/06 01:16:27;;;;;;;18.33;10.60;;;;;;;-0.01;100.00;100842.81;5076044;28;20028;-75
2023/03/06 01:18:52;;;;;;;18.77;10.52;;;;;;;-0.08;100.00;100840.94;5075895;28;20029;-75
2023/03/06 01:21:17;;;;;;;18.42;10.20;;;;;;;-0.13;100.00;100843.44;5074970;28;20016;-75
2023/03/06 01:23:43;;;;;;;17.80;10.48;;;;;;;-0.19;100.00;100837.34;5075577;28;20380;-75
2023/03/06 01:26:08;;;;;;;21.88;10.52;;;;;;;-0.18;100.00;100839.91;5075198;28;20040;-75
2023/03/06 01:28:36;;;;;;;24.52;11.00;;;;;;;-0.18;100.00;100844.16;5074830;28;20055;-75
2023/03/06 01:31:02;;;;;;;20.52;10.80;;;;;;;-0.21;100.00;100847.53;5075665;28;20021;-75
2023/03/06 01:33:27;;;;;;;20.77;11.75;;;;;;;-0.27;100.00;100839.72;5075696;28;20027;-75
2023/03/06 01:35:52;;;;;;;19.15;10.45;;;;;;;-0.38;100.00;100816.44;5074929;28;20029;-75
2023/03/06 01:38:18;;;;;;;18.20;10.30;;;;;;;-0.30;100.00;100837.94;5075495;28;20082;-75
2023/03/06 01:40:44;;;;;;;21.30;12.07;;;;;;;-0.30;100.00;100848.19;5074184;28;20484;-75
2023/03/06 01:43:25;;;;;;;20.42;11.48;;;;;;;-0.33;100.00;100842.16;5074451;28;20024;-75
2023/03/06 01:45:50;;;;;;;18.60;10.45;;;;;;;-0.34;100.00;100836.16;5062618;28;20021;-75
2023/03/06 01:48:20;;;;;;;20.35;11.30;;;;;;;-0.50;100.00;100808.50;5073466;28;20093;-75
2023/03/06 01:50:46;;;;;;;20.63;11.50;;;;;;;-0.42;100.00;100830.03;5072993;28;20024;-75
2023/03/06 01:53:13;;;;;;;24.70;11.35;;;;;;;-0.47;100.00;100829.91;5080300;28;20033;-75
2023/03/06 01:55:39;;;;;;;21.67;10.85;;;;;;;-0.54;100.00;100814.41;5078210;28;20027;-75
2023/03/06 01:58:11;;;;;;;18.27;10.27;;;;;;;-0.53;100.00;100821.25;5082730;28;20153;-75
2023/03/06 02:00:36;;;;;;;21.90;10.63;;;;;;;-0.61;100.00;100815.09;5073472;28;20468;-75
2023/03/06 02:03:19;;;;;;;18.30;10.20;;;;;;;-0.67;100.00;100820.09;5071516;28;20043;-76
2023/03/06 02:05:44;;;;;;;20.75;11.32;;;;;;;-0.67;100.00;100815.81;5077983;28;20064;-75
2023/03/06 02:08:12;;;;;;;18.45;9.82;;;;;;;-0.72;100.00;100823.41;5077929;28;20062;-76
2023/03/06 02:10:41;;;;;;;19.42;10.20;;;;;;;-0.78;100.00;100807.06;5088459;28;20458;-75
2023/03/06 02:13:06;;;;;;;17.08;10.20;;;;;;;-0.80;100.00;100817.25;5094186;28;20031;-75
2023/03/06 02:15:32;;;;;;;19.58;10.05;;;;;;;-0.82;100.00;100806.13;5090652;28;20032;-75
2023/03/06 02:17:59;;;;;;;20.70;10.20;;;;;;;-0.89;100.00;100804.25;5082685;28;20074;-75
2023/03/06 02:20:32;;;;;;;20.15;10.75;;;;;;;-0.90;100.00;100805.09;5094270;28;20453;-75
2023/03/06 02:23:10;;;;;;;18.48;10.45;;;;;;;-0.94;100.00;100805.84;5083367;28;20036;-75
2023/03/06 02:25:45;;;;;;;17.95;10.02;;;;;;;-1.00;100.00;100803.16;5080118;28;20113;-76
2023/03/06 02:28:14;;;;;;;19.10;9.88;;;;;;;-1.11;100.00;100789.22;5094999;28;20491;-75
2023/03/06 02:30:41;;;;;;;17.48;9.70;;;;;;;-1.12;100.00;100787.50;5093445;28;20124;-75
2023/03/06 02:33:09;;;;;;;17.30;9.93;;;;;;;-1.16;100.00;100786.56;5086719;28;20033;-76
2023/03/06 02:35:37;;;;;;;18.25;9.95;;;;;;;-1.17;100.00;100781.44;5073459;28;20036;-75
2023/03/06 02:38:08;;;;;;;18.00;9.82;;;;;;;-1.20;100.00;100780.53;5073362;28;20028;-75
2023/03/06 02:40:34;;;;;;;19.08;9.57;;;;;;;-1.24;100.00;100783.84;5074177;28;20019;-75
2023/03/06 02:43:00;;;;;;;18.33;10.00;;;;;;;-1.26;100.00;100775.25;5073317;28;20036;-75
2023/03/06 02:45:36;;;;;;;20.38;10.00;;;;;;;-1.24;100.00;100773.63;5073458;28;20043;-75
2023/03/06 02:48:02;;;;;;;18.27;9.73;;;;;;;-1.29;100.00;100770.06;5074024;28;20468;-75
2023/03/06 02:50:28;;;;;;;19.63;10.52;;;;;;;-1.30;100.00;100763.25;5073799;28;20107;-75
2023/03/06 02:52:54;;;;;;;20.42;11.10;;;;;;;-1.27;100.00;100765.88;5072435;28;20468;-76
2023/03/06 02:55:19;;;;;;;25.73;11.20;;;;;;;-1.31;100.00;100751.28;5074237;28;20035;-75
2023/03/06 02:57:44;;;;;;;23.63;10.80;;;;;;;-1.24;100.00;100765.09;5073258;28;20426;-75
2023/03/06 03:00:13;;;;;;;27.95;13.23;;;;;;;-1.22;100.00;100748.91;5082598;28;20050;-75
2023/03/06 03:02:38;;;;;;;27.95;13.38;;;;;;;-1.11;100.00;100756.84;5093812;28;20016;-75
2023/03/06 03:05:04;;;;;;;26.30;12.48;;;;;;;-1.07;100.00;100760.34;5087710;28;20020;-76
2023/03/06 03:07:29;;;;;;;28.45;13.57;;;;;;;-1.05;100.00;100751.00;5078326;28;20028;-75
2023/03/06 03:09:54;;;;;;;30.35;14.07;;;;;;;-1.15;100.00;100729.44;5069507;28;20027;-75
2023/03/06 03:12:21;;;;;;;26.88;13.55;;;;;;;-1.19;100.00;100728.53;5074336;28;20851;-76
2023/03/06 03:14:47;;;;;;;23.63;12.18;;;;;;;-1.10;100.00;100752.59;5079350;28;20039;-75
2023/03/06 03:17:12;;;;;;;28.30;12.80;;;;;;;-1.15;100.00;100743.94;5084261;28;20021;-75
2023/03/06 03:19:38;;;;;;;28.33;13.70;;;;;;;-1.16;100.00;100744.78;5077440;28;20031;-75
2023/03/06 03:22:04;;;;;;;26.52;12.60;;;;;;;-1.21;100.00;100737.88;5086890;28;20087;-76
2023/03/06 03:24:29;;;;;;;31.73;13.27;;;;;;;-1.24;100.00;100742.06;5091770;28;20032;-75
2023/03/06 03:26:55;;;;;;;30.25;13.88;;;;;;;-1.24;100.00;100744.63;5077857;28;20408;-75
2023/03/06 03:29:21;;;;;;;30.08;13.77;;;;;;;-1.28;100.00;100746.22;5093408;28;20028;-75
2023/03/06 03:31:47;;;;;;;30.60;13.50;;;;;;;-1.28;100.00;100740.25;5093199;28;20016;-75
2023/03/06 03:34:12;;;;;;;31.42;13.20;;;;;;;-1.30;100.00;100740.22;5092845;28;20020;-75
2023/03/06 03:36:38;;;;;;;28.63;13.52;;;;;;;-1.36;100.00;100721.31;5092421;28;20472;-75
2023/03/06 03:39:03;;;;;;;28.58;13.43;;;;;;;-1.40;100.00;100722.06;5080909;28;20069;-75
2023/03/06 03:41:29;;;;;;;26.27;12.70;;;;;;;-1.43;100.00;100723.72;5092495;28;20449;-75
2023/03/06 03:43:54;;;;;;;29.10;13.57;;;;;;;-1.45;100.00;100724.50;5078689;28;20569;-75
2023/03/06 03:46:20;;;;;;;34.60;15.05;;;;;;;-1.43;100.00;100731.41;5093443;28;20074;-75
2023/03/06 03:48:45;;;;;;;30.52;14.35;;;;;;;-1.50;100.00;100711.63;5092184;28;20027;-75
2023/03/06 03:51:12;;;;;;;30.58;14.52;;;;;;;-1.51;100.00;100719.25;5093245;28;20027;-75
2023/03/06 03:53:38;;;;;;;29.83;14.18;;;;;;;-1.48;100.00;100724.44;5092812;28;20016;-75
2023/03/06 03:56:04;;;;;;;31.95;14.20;;;;;;;-1.49;100.00;100715.03;5092287;28;20022;-75
2023/03/06 03:58:29;;;;;;;27.42;13.82;;;;;;;-1.53;100.00;100708.13;5082861;28;20036;-75
2023/03/06 04:00:55;;;;;;;29.75;13.43;;;;;;;-1.52;100.00;100704.75;5087493;28;20075;-75
2023/03/06 04:03:20;;;;;;;27.23;13.40;;;;;;;-1.53;100.00;100708.13;5092447;28;20114;-75
2023/03/06 04:05:45;;;;;;;27.83;13.75;;;;;;;-1.55;100.00;100697.84;5092548;28;20520;-75
2023/03/06 04:08:11;;;;;;;33.88;14.80;;;;;;;-1.55;100.00;100702.13;5092799;28;20020;-75
2023/03/06 04:10:38;;;;;;;32.03;14.90;;;;;;;-1.56;100.00;100692.72;5092120;28;20104;-75
2023/03/06 04:13:04;;;;;;;33.42;15.82;;;;;;;-1.58;100.00;100694.38;5092910;28;20024;-75
2023/03/06 04:15:29;;;;;;;34.60;15.10;;;;;;;-1.59;100.00;100697.75;5071085;28;20028;-75
2023/03/06 04:17:55;;;;;;;35.45;16.67;;;;;;;-1.61;100.00;100694.28;5088868;28;20031;-75
2023/03/06 04:20:20;;;;;;;37.22;15.70;;;;;;;-1.63;100.00;100690.84;5090052;28;20114;-75
2023/03/06 04:22:45;;;;;;;42.22;17.88;;;;;;;-1.61;100.00;100687.47;5077361;28;20467;-75
2023/03/06 04:25:11;;;;;;;42.47;17.92;;;;;;;-1.55;100.00;100694.44;5079599;28;20024;-75
2023/03/06 04:27:36;;;;;;;45.55;18.60;;;;;;;-1.51;100.00;100691.97;5088017;28;20021;-75
2023/03/06 04:30:02;;;;;;;48.58;18.95;;;;;;;-1.47;100.00;100693.81;5076660;28;20028;-75
2023/03/06 04:32:27;;;;;;;52.22;21.00;;;;;;;-1.45;100.00;100681.03;5084352;28;20058;-75
2023/03/06 04:34:52;;;;;;;53.42;20.02;;;;;;;-1.35;100.00;100688.09;5071413;28;20464;-75
2023/03/06 04:37:21;;;;;;;55.38;20.85;;;;;;;-1.30;100.00;100680.53;5069988;28;20454;-75
2023/03/06 04:39:46;;;;;;;58.00;22.30;;;;;;;-1.27;100.00;100671.22;5085713;28;20063;-75
2023/03/06 04:42:11;;;;;;;56.75;21.08;;;;;;;-1.24;100.00;100673.00;5085606;28;20095;-75
2023/03/06 04:44:37;;;;;;;59.83;21.85;;;;;;;-1.25;100.00;100667.00;5072986;28;20032;-75
2023/03/06 04:47:02;;;;;;;62.97;23.02;;;;;;;-1.12;100.00;100678.34;5089913;28;20085;-75
2023/03/06 04:49:27;;;;;;;59.22;23.05;;;;;;;-1.07;100.00;100675.91;5085319;28;20020;-75
2023/03/06 04:51:53;;;;;;;60.75;22.13;;;;;;;-1.03;100.00;100668.31;5087408;28;20024;-75
2023/03/06 04:54:18;;;;;;;67.47;22.67;;;;;;;-0.99;100.00;100670.09;5092442;28;20020;-75
2023/03/06 04:56:43;;;;;;;63.45;24.00;;;;;;;-0.97;100.00;100665.88;5091977;28;20085;-75
2023/03/06 04:59:09;;;;;;;68.53;23.45;;;;;;;-0.91;100.00;100669.41;5076854;28;20040;-75
2023/03/06 05:01:34;;;;;;;64.45;23.58;;;;;;;-0.93;100.00;100666.81;5083396;28;20028;-75
2023/03/06 05:03:59;;;;;;;66.57;24.30;;;;;;;-0.94;100.00;100659.97;5092284;28;20116;-75
2023/03/06 05:06:25;;;;;;;70.43;24.40;;;;;;;-0.93;100.00;100666.81;5091641;28;20418;-75
2023/03/06 05:08:50;;;;;;;65.80;23.65;;;;;;;-0.85;100.00;100665.28;5084192;28;20031;-75
2023/03/06 05:11:15;;;;;;;69.85;25.05;;;;;;;-0.83;100.00;100668.72;5092260;28;20082;-75
2023/03/06 05:13:41;;;;;;;68.00;24.60;;;;;;;-0.78;100.00;100661.16;5091515;28;20443;-75
2023/03/06 05:16:07;;;;;;;76.85;27.80;;;;;;;-0.79;100.00;100655.13;5092105;28;20028;-74
2023/03/06 05:18:33;;;;;;;76.10;24.90;;;;;;;-0.72;100.00;100658.69;5092045;28;20028;-75
2023/03/06 05:20:59;;;;;;;75.90;26.10;;;;;;;-0.72;100.00;100651.91;5078692;28;20028;-75
2023/03/06 05:23:29;;;;;;;74.85;26.33;;;;;;;-0.65;100.00;100646.91;5085924;28;20170;-75
2023/03/06 05:25:55;;;;;;;68.97;24.30;;;;;;;-0.69;100.00;100637.41;5070657;28;20039;-75
2023/03/06 05:28:21;;;;;;;73.85;26.00;;;;;;;-0.66;100.00;100640.03;5089569;28;20095;-75
2023/03/06 05:30:47;;;;;;;76.00;27.05;;;;;;;-0.66;100.00;100637.47;5091952;28;20578;-75
2023/03/06 05:33:12;;;;;;;80.35;26.50;;;;;;;-0.59;100.00;100653.00;5091086;28;20032;-75
2023/03/06 05:35:37;;;;;;;81.22;30.13;;;;;;;-0.60;100.00;100641.00;5091945;28;20031;-75
2023/03/06 05:38:03;;;;;;;74.10;27.05;;;;;;;-0.56;100.00;100644.47;5089938;28;20150;-75
2023/03/06 05:40:28;;;;;;;82.80;28.63;;;;;;;-0.55;100.00;100646.22;5090864;28;20023;-75
2023/03/06 05:42:54;;;;;;;71.80;26.55;;;;;;;-0.54;100.00;100646.25;5074479;28;20527;-75
2023/03/06 05:45:19;;;;;;;76.07;27.80;;;;;;;-0.55;100.00;100636.00;5080902;28;20028;-75
2023/03/06 05:47:45;;;;;;;83.97;29.13;;;;;;;-0.50;100.00;100647.16;5089724;28;20111;-75
2023/03/06 05:50:12;;;;;;;78.78;29.25;;;;;;;-0.51;100.00;100633.50;5087221;28;20056;-75
2023/03/06 05:52:38;;;;;;;76.20;29.40;;;;;;;-0.52;100.00;100638.59;5089548;28;20391;-75
2023/03/06 05:55:04;;;;;;;78.03;27.35;;;;;;;-0.53;100.00;100630.03;5072391;28;20032;-75
2023/03/06 05:57:29;;;;;;;76.63;28.02;;;;;;;-0.47;100.00;100640.38;5074870;28;20047;-75
2023/03/06 05:59:55;;;;;;;80.47;29.05;;;;;;;-0.46;100.00;100633.56;5078155;28;20036;-75
2023/03/06 06:02:20;;;;;;;82.32;29.08;;;;;;;-0.45;100.00;100635.31;5080987;28;20104;-75
2023/03/06 06:04:46;;;;;;;78.22;27.38;;;;;;;-0.43;100.00;100638.75;5094098;28;20046;-75
2023/03/06 06:07:13;;;;;;;82.68;30.45;;;;;;;-0.41;100.00;100636.22;5093220;28;20020;-75
2023/03/06 06:09:39;;;;;;;84.90;28.60;;;;;;;-0.42;100.00;100634.50;5094118;28;20063;-75
2023/03/06 06:12:04;;;;;;;85.85;29.75;;;;;;;-0.45;100.00;100635.31;5094995;28;20063;-75
2023/03/06 06:14:33;;;;;;;83.20;28.88;;;;;;;-0.40;100.00;100638.81;5094486;28;20020;-75
2023/03/06 06:16:58;;;;;;;87.32;30.63;;;;;;;-0.38;100.00;100642.25;5081747;28;20107;-75
2023/03/06 06:19:23;;;;;;;79.78;28.95;;;;;;;-0.41;100.00;100626.84;5081628;28;20116;-75
2023/03/06 06:21:52;;;;;;;78.70;28.50;;;;;;;-0.36;100.00;100635.47;5094091;28;20062;-75
2023/03/06 06:24:20;;;;;;;86.97;29.80;;;;;;;-0.35;100.00;100634.63;5094252;28;20039;-75
2023/03/06 06:26:48;;;;;;;84.95;29.08;;;;;;;-0.34;100.00;100636.34;5094637;28;20024;-75
2023/03/06 06:29:13;;;;;;;85.82;28.63;;;;;;;-0.34;100.00;100638.06;5094420;28;20754;-75
2023/03/06 06:31:39;;;;;;;79.65;28.58;;;;;;;-0.30;100.00;100639.81;5094210;28;20026;-75
2023/03/06 06:34:05;;;;;;;85.68;29.25;;;;;;;-0.35;100.00;100626.94;5082967;28;20043;-75
2023/03/06 06:36:30;;;;;;;87.68;29.92;;;;;;;-0.29;100.00;100626.22;5093362;28;20020;-74
2023/03/06 06:38:56;;;;;;;85.68;29.08;;;;;;;-0.22;100.00;100640.84;5094677;28;20012;-75
2023/03/06 06:41:21;;;;;;;84.45;30.08;;;;;;;-0.25;100.00;100622.84;5094775;28;20386;-75
2023/03/06 06:43:46;;;;;;;86.70;31.33;;;;;;;-0.17;100.00;100635.78;5093375;28;20032;-75
2023/03/06 06:46:12;;;;;;;84.45;30.35;;;;;;;-0.16;100.00;100632.41;5094416;28;20031;-75
2023/03/06 06:48:37;;;;;;;91.60;31.02;;;;;;;-0.12;100.00;100641.84;5094017;28;20028;-75
2023/03/06 06:51:03;;;;;;;92.60;29.80;;;;;;;-0.07;100.00;100637.66;5081132;28;20020;-74
2023/03/06 06:53:29;;;;;;;89.88;29.88;;;;;;;-0.02;100.00;100630.91;5093661;28;20028;-75
2023/03/06 06:55:56;;;;;;;89.82;29.33;;;;;;;-0.04;100.00;100617.19;5087315;28;20020;-75
2023/03/06 06:58:22;;;;;;;91.65;31.27;;;;;;;0.07;100.00;100622.53;5084673;28;20028;-75
2023/03/06 07:00:47;;;;;;;89.05;30.65;;;;;;;0.10;100.00;100617.41;5077664;28;20074;-75
2023/03/06 07:03:12;;;;;;;86.75;30.90;;;;;;;0.18;100.00;100623.53;5076280;28;20028;-74
2023/03/06 07:05:38;;;;;;;85.50;30.75;;;;;;;0.23;100.00;100639.88;5076413;28;20032;-74
2023/03/06 07:08:04;;;;;;;87.78;30.95;;;;;;;0.20;100.00;100630.41;5081926;28;20029;-74
2023/03/06 07:10:30;;;;;;;83.38;31.63;;;;;;;0.21;100.00;100639.81;5083869;28;20027;-74
2023/03/06 07:12:55;;;;;;;85.47;32.00;;;;;;;0.21;100.00;100632.13;5077928;28;20115;-75
2023/03/06 07:15:22;;;;;;;96.03;35.60;;;;;;;0.25;100.00;100637.31;5082312;28;20016;-75
2023/03/06 07:17:47;;;;;;;87.75;31.30;;;;;;;0.25;100.00;100622.78;5087391;28;20397;-74
2023/03/06 07:20:14;;;;;;;87.45;34.05;;;;;;;0.26;100.00;100639.03;5093202;28;20465;-74
2023/03/06 07:22:39;;;;;;;81.10;31.10;;;;;;;0.25;100.00;100643.28;5093098;28;20024;-74
2023/03/06 07:25:05;;;;;;;93.18;31.95;;;;;;;0.28;100.00;100632.22;5091574;28;20087;-76
2023/03/06 07:27:31;;;;;;;98.85;35.88;;;;;;;0.33;100.00;100646.84;5092916;28;20024;-75
2023/03/06 07:29:56;;;;;;;88.75;32.75;;;;;;;0.36;100.00;100643.44;5089686;28;20103;-75
2023/03/06 07:32:23;;;;;;;92.38;33.03;;;;;;;0.38;100.00;100636.66;5092741;28;20110;-76
2023/03/06 07:34:48;;;;;;;99.95;34.33;;;;;;;0.39;100.00;100638.38;5093199;28;20020;-75
2023/03/06 07:37:13;;;;;;;102.88;35.47;;;;;;;0.41;100.00;100634.13;5093596;28;20031;-75
2023/03/06 07:39:39;;;;;;;102.93;34.28;;;;;;;0.53;100.00;100630.91;5092235;28;20040;-75
2023/03/06 07:42:06;;;;;;;112.57;36.60;;;;;;;0.65;100.00;100638.75;5090699;28;20022;-75
2023/03/06 07:44:35;;;;;;;103.75;34.78;;;;;;;0.68;100.00;100626.81;5093036;28;20421;-75
2023/03/06 07:47:00;;;;;;;110.53;34.90;;;;;;;0.83;100.00;100630.44;5089221;28;20028;-75
2023/03/06 07:49:25;;;;;;;106.53;36.50;;;;;;;0.84;100.00;100627.00;5091181;28;20095;-75
2023/03/06 07:51:51;;;;;;;114.15;37.33;;;;;;;0.91;100.00;100624.53;5074692;28;20082;-75
2023/03/06 07:54:16;;;;;;;118.10;38.25;;;;;;;0.98;100.00;100632.31;5092318;28;20020;-75
2023/03/06 07:56:41;;;;;;;108.32;37.83;;;;;;;1.01;100.00;100632.34;5084332;28;20142;-75
2023/03/06 07:59:07;;;;;;;106.60;34.33;;;;;;;1.05;100.00;100624.72;5076303;28;20041;-75
2023/03/06 08:01:32;;;;;;;102.30;36.25;;;;;;;1.10;100.00;100635.91;5075272;28;20043;-75
2023/03/06 08:03:58;;;;;;;101.35;36.30;;;;;;;1.10;100.00;100633.31;5073965;28;20036;-75
2023/03/06 08:06:25;;;;;;;99.68;36.60;;;;;;;1.12;100.00;100631.66;5081324;28;20502;-76
2023/03/06 08:08:53;;;;;;;100.70;36.95;;;;;;;1.09;100.00;100636.75;5085559;28;20028;-75
2023/03/06 08:11:20;;;;;;;87.78;29.90;;;;;;;1.09;100.00;100638.47;5071348;28;20047;-76
2023/03/06 08:13:47;;;;;;;86.65;33.70;;;;;;;1.06;100.00;100639.28;5069530;28;21781;-76
2023/03/06 08:16:14;;;;;;;81.43;32.58;;;;;;;1.06;100.00;100639.28;5076944;28;20021;-76
2023/03/06 08:18:39;;;;;;;84.95;32.47;;;;;;;1.04;100.00;100640.94;5081105;28;20486;-76
2023/03/06 08:21:10;;;;;;;79.70;30.70;;;;;;;1.08;100.00;100637.59;5078105;28;20028;-76
2023/03/06 08:23:36;;;;;;;83.97;33.63;;;;;;;1.11;100.00;100639.31;5067253;28;20032;-76
2023/03/06 08:26:13;;;;;;;89.10;34.40;;;;;;;1.14;100.00;100640.25;5084779;28;20034;-76
2023/03/06 08:28:39;;;;;;;89.93;32.25;;;;;;;1.14;100.00;100637.69;5091736;28;20027;-76
2023/03/06 08:31:19;;;;;;;83.40;30.25;;;;;;;1.15;100.00;100639.41;5075674;28;20361;-76
2023/03/06 08:33:44;;;;;;;85.53;31.58;;;;;;;1.23;100.00;100630.91;5085735;28;20066;-76
2023/03/06 08:36:09;;;;;;;93.63;32.38;;;;;;;1.34;100.00;100619.91;5080445;28;20447;-75
2023/03/06 08:38:35;;;;;;;96.18;33.70;;;;;;;1.58;100.00;100639.84;5072324;28;20049;-75
2023/03/06 08:41:00;;;;;;;96.45;33.08;;;;;;;1.76;100.00;100633.16;5074554;28;20016;-75
2023/03/06 08:43:25;;;;;;;88.47;32.72;;;;;;;1.86;100.00;100637.53;5069392;28;20391;-75
2023/03/06 08:45:52;;;;;;;83.43;30.48;;;;;;;1.87;100.00;100646.97;5070459;28;20460;-75
2023/03/06 08:48:17;;;;;;;77.45;30.13;;;;;;;1.88;100.00;100631.56;5085134;28;20070;-75
2023/03/06 08:50:43;;;;;;;78.03;30.13;;;;;;;1.87;100.00;100624.69;5091334;28;20039;-76
2023/03/06 08:53:08;;;;;;;70.53;26.63;;;;;;;2.04;100.00;100645.41;5092214;28;20378;-76
2023/03/06 08:55:35;;;;;;;62.95;25.85;;;;;;;2.01;100.00;100642.81;5083802;28;20479;-75
2023/03/06 08:58:01;;;;;;;64.38;26.63;;;;;;;2.07;100.00;100639.44;5064766;28;20104;-76
2023/03/06 09:00:26;;;;;;;61.35;27.02;;;;;;;2.05;100.00;100646.25;5083654;28;20127;-75
2023/03/06 09:02:52;;;;;;;65.78;25.90;;;;;;;2.14;100.00;100635.19;5080001;28;20056;-76
2023/03/06 09:05:17;;;;;;;61.33;26.65;;;;;;;2.34;100.00;100646.47;5078945;28;20097;-76
2023/03/06 09:07:43;;;;;;;67.30;26.65;;;;;;;2.49;100.00;100638.88;5071592;28;20025;-76
2023/03/06 09:10:13;;;;;;;61.75;25.48;;;;;;;2.56;100.00;100635.47;5070994;28;20020;-75
2023/03/06 09:12:39;;;;;;;57.88;26.05;;;;;;;2.55;100.00;100633.78;5067776;28;20492;-76
2023/03/06 09:15:04;;;;;;;58.75;26.20;;;;;;;2.75;100.00;100641.59;5069236;28;20024;-75
2023/03/06 09:17:30;;;;;;;59.80;25.55;;;;;;;2.89;100.00;100639.09;5071584;28;20529;-75
2023/03/06 09:19:55;;;;;;;58.35;25.77;;;;;;;2.99;100.00;100633.13;5069917;28;20032;-75
2023/03/06 09:22:20;;;;;;;61.45;26.33;;;;;;;3.05;100.00;100638.28;5070455;28;20028;-74
2023/03/06 09:24:46;;;;;;;52.40;25.42;;;;;;;3.11;100.00;100634.91;5074158;28;20024;-74
2023/03/06 09:27:11;;;;;;;51.90;23.80;;;;;;;3.23;100.00;100639.22;5075577;28;20032;-74
2023/03/06 09:29:36;;;;;;;50.63;24.33;;;;;;;3.26;100.00;100641.78;5075325;28;20472;-74
2023/03/06 09:32:01;;;;;;;54.17;23.70;;;;;;;3.38;100.00;100641.84;5074917;28;20021;-74
2023/03/06 09:34:27;;;;;;;51.80;24.35;;;;;;;3.45;100.00;100635.84;5075580;28;20468;-74
2023/03/06 09:36:52;;;;;;;41.83;22.63;;;;;;;3.48;100.00;100643.59;5074286;28;20107;-74
2023/03/06 09:39:17;;;;;;;50.13;24.15;;;;;;;3.62;100.00;100647.91;5074878;28;20035;-74
2023/03/06 09:41:45;;;;;;;41.13;22.38;;;;;;;3.65;100.00;100642.75;5075274;28;20494;-74
2023/03/06 09:44:13;;;;;;;39.40;21.77;;;;;;;3.58;100.00;100647.03;5073442;28;20139;-74
2023/03/06 09:47:12;;;;;;;46.72;23.02;;;;;;;3.58;100.00;100639.31;5074006;28;20451;-74
2023/03/06 09:49:59;;;;;;;38.22;21.13;;;;;;;3.61;100.00;100647.06;5068342;28;20075;-74
2023/03/06 09:52:42;;;;;;;39.17;21.30;;;;;;;3.61;100.00;100648.78;5075978;28;20039;-74
2023/03/06 09:55:10;;;;;;;41.83;21.00;;;;;;;3.59;100.00;100638.44;5069439;28;20035;-74
2023/03/06 09:57:54;;;;;;;38.38;21.23;;;;;;;3.65;100.00;100645.34;5074722;28;20028;-74
2023/03/06 10:00:31;;;;;;;38.10;20.80;;;;;;;3.83;100.00;100647.09;5074110;28;20507;-74
2023/03/06 10:03:21;;;;;;;40.40;21.05;;;;;;;3.96;100.00;100636.78;5093513;28;20016;-74
2023/03/06 10:05:57;;;;;;;31.67;17.75;;;;;;;3.91;100.00;100638.47;5090287;28;20125;-74
2023/03/06 10:08:29;;;;;;;37.63;20.20;;;;;;;3.79;100.00;100646.19;5094399;28;20103;-74
2023/03/06 10:10:55;;;;;;;38.03;19.73;;;;;;;3.71;100.00;100645.34;5095476;28;20442;-74
2023/03/06 10:13:42;;;;;;;32.90;19.02;;;;;;;3.74;100.00;100637.63;5086680;28;20526;-74
2023/03/06 10:16:28;;;;;;;37.50;21.00;;;;;;;3.79;100.00;100635.03;5089010;28;20032;-74
2023/03/06 10:19:02;;;;;;;33.03;18.73;;;;;;;3.96;100.00;100636.78;5077806;28;20024;-74
2023/03/06 10:21:41;;;;;;;30.80;17.55;;;;;;;4.21;100.00;100644.50;5090462;28;20023;-73
2023/03/06 10:24:15;;;;;;;30.80;18.30;;;;;;;4.41;100.00;100631.56;5086473;28;20029;-74
2023/03/06 10:26:51;;;;;;;29.80;17.00;;;;;;;4.51;100.00;100638.44;5092283;28;20099;-74
2023/03/06 10:29:19;;;;;;;29.20;17.33;;;;;;;4.63;100.00;100629.81;5092199;28;20081;-74
2023/03/06 10:31:54;;;;;;;30.90;17.15;;;;;;;4.80;100.00;100628.03;5091231;28;20024;-74
2023/03/06 10:34:36;;;;;;;25.15;15.70;;;;;;;4.92;100.00;100621.97;5072718;28;20082;-74
2023/03/06 10:37:15;;;;;;;24.98;14.38;;;;;;;5.04;100.00;100632.28;5079047;28;20103;-74
2023/03/06 10:39:40;;;;;;;23.90;15.23;;;;;;;5.07;100.00;100615.91;5093327;28;20028;-74
2023/03/06 10:42:08;;;;;;;31.65;17.27;;;;;;;5.08;100.00;100625.34;5092818;28;20101;-74
2023/03/06 10:44:33;;;;;;;31.77;18.48;;;;;;;5.05;100.00;100635.72;5093832;28;20361;-74
2023/03/06 10:47:24;;;;;;;35.28;18.75;;;;;;;5.10;100.00;100624.50;5094473;28;20074;-74
2023/03/06 10:49:59;;;;;;;27.25;16.00;;;;;;;5.11;100.00;100620.19;5076554;28;20053;-74
2023/03/06 10:52:28;;;;;;;23.35;14.38;;;;;;;5.11;100.00;100620.19;5093385;28;20463;-74
2023/03/06 10:55:20;;;;;;;22.58;13.05;;;;;;;5.08;100.00;100620.19;5094479;28;20032;-74
2023/03/06 10:57:45;;;;;;;21.38;13.48;;;;;;;5.15;100.00;100625.31;5089414;28;20404;-74
2023/03/06 11:00:29;;;;;;;22.40;13.68;;;;;;;5.13;100.00;100631.34;5069498;28;20044;-74
2023/03/06 11:03:16;;;;;;;21.20;14.05;;;;;;;5.27;100.00;100629.56;5077124;28;20419;-74
2023/03/06 11:06:12;;;;;;;19.17;12.50;;;;;;;5.41;100.00;100632.09;5068804;28;20044;-74
2023/03/06 11:08:39;;;;;;;18.90;11.18;;;;;;;5.35;100.00;100630.38;5075277;28;20392;-74